createdAt,value
2023-04-25T00:00:05.797Z,3.02
2023-04-25T00:01:05.798Z,3.02
2023-04-25T00:02:05.810Z,3.05
2023-04-25T00:03:05.874Z,3.02
2023-04-25T00:04:05.878Z,3.02
2023-04-25T00:05:05.828Z,3.02
2023-04-25T00:06:05.732Z,3.02
2023-04-25T00:07:05.718Z,3.02
2023-04-25T00:08:05.709Z,3.00
2023-04-25T00:09:05.719Z,2.97
2023-04-25T00:10:05.693Z,2.97
2023-04-25T00:11:05.677Z,2.95
2023-04-25T00:12:05.676Z,2.94
2023-04-25T00:13:05.668Z,2.94
2023-04-25T00:14:05.662Z,2.92
2023-04-25T00:15:05.669Z,2.94
2023-04-25T00:16:05.633Z,2.91
2023-04-25T00:17:05.618Z,2.91
2023-04-25T00:18:05.653Z,2.91
2023-04-25T00:19:05.606Z,2.88
2023-04-25T00:20:05.598Z,2.87
2023-04-25T00:21:05.621Z,2.87
2023-04-25T00:22:05.597Z,2.88
2023-04-25T00:23:05.561Z,2.89
2023-04-25T00:24:05.567Z,2.92
2023-04-25T00:25:05.550Z,2.92
2023-04-25T00:26:05.542Z,2.91
2023-04-25T00:27:05.550Z,2.85
2023-04-25T00:28:05.523Z,2.85
2023-04-25T00:29:05.515Z,2.85
2023-04-25T00:30:05.502Z,2.84
2023-04-25T00:31:05.505Z,2.79
2023-04-25T00:32:05.550Z,2.76
2023-04-25T00:33:05.561Z,2.74
2023-04-25T00:34:05.462Z,2.76
2023-04-25T00:35:05.440Z,2.76
2023-04-25T00:36:05.452Z,2.74
2023-04-25T00:37:05.429Z,2.74
2023-04-25T00:38:05.421Z,2.76
2023-04-25T00:39:05.437Z,2.74
2023-04-25T00:40:05.402Z,2.74
2023-04-25T00:41:05.384Z,2.77
2023-04-25T00:42:05.389Z,2.79
2023-04-25T00:43:05.361Z,2.77
2023-04-25T00:44:05.358Z,2.76
2023-04-25T00:45:05.378Z,2.77
2023-04-25T00:46:05.348Z,2.77
2023-04-25T00:47:05.422Z,2.77
2023-04-25T00:48:05.342Z,2.77
2023-04-25T00:49:05.321Z,2.77
2023-04-25T00:50:05.286Z,2.77
2023-04-25T00:51:05.305Z,2.77
2023-04-25T00:52:05.278Z,2.77
2023-04-25T00:53:05.255Z,2.76
2023-04-25T00:54:05.249Z,2.71
2023-04-25T00:55:05.245Z,2.73
2023-04-25T00:56:05.276Z,2.71
2023-04-25T00:57:05.282Z,2.73
2023-04-25T00:58:05.226Z,2.71
2023-04-25T00:59:05.206Z,2.73
2023-04-25T01:00:05.194Z,2.73
2023-04-25T01:01:05.258Z,2.71
2023-04-25T01:02:05.242Z,2.70
2023-04-25T01:03:05.357Z,2.70
2023-04-25T01:04:05.273Z,2.70
2023-04-25T01:05:05.150Z,2.69
2023-04-25T01:06:05.146Z,2.71
2023-04-25T01:07:05.128Z,2.73
2023-04-25T01:08:05.121Z,2.73
2023-04-25T01:09:05.136Z,2.74
2023-04-25T01:10:05.115Z,2.77
2023-04-25T01:11:05.090Z,2.71
2023-04-25T01:12:05.080Z,2.69
2023-04-25T01:13:05.078Z,2.69
2023-04-25T01:14:05.068Z,2.69
2023-04-25T01:15:05.097Z,2.70
2023-04-25T01:16:05.058Z,2.66
2023-04-25T01:17:05.034Z,2.66
2023-04-25T01:18:05.072Z,2.67
2023-04-25T01:19:05.016Z,2.67
2023-04-25T01:20:05.008Z,2.73
2023-04-25T01:21:05.021Z,2.77
2023-04-25T01:22:04.975Z,2.77
2023-04-25T01:23:04.978Z,2.77
2023-04-25T01:24:04.986Z,2.76
2023-04-25T01:25:04.952Z,2.73
2023-04-25T01:26:04.935Z,2.73
2023-04-25T01:27:04.955Z,2.70
2023-04-25T01:28:04.918Z,2.70
2023-04-25T01:29:04.903Z,2.71
2023-04-25T01:30:04.894Z,2.71
2023-04-25T01:31:04.894Z,2.69
2023-04-25T01:32:04.934Z,2.70
2023-04-25T01:33:04.944Z,2.67
2023-04-25T01:34:04.860Z,2.66
2023-04-25T01:35:04.861Z,2.64
2023-04-25T01:36:04.845Z,2.59
2023-04-25T01:37:04.828Z,2.59
2023-04-25T01:38:04.828Z,2.58
2023-04-25T01:39:04.830Z,2.61
2023-04-25T01:40:04.803Z,2.61
2023-04-25T01:41:04.801Z,2.63
2023-04-25T01:42:04.780Z,2.63
2023-04-25T01:43:04.777Z,2.66
2023-04-25T01:44:04.770Z,2.64
2023-04-25T01:45:04.781Z,2.66
2023-04-25T01:46:04.781Z,2.67
2023-04-25T01:47:04.734Z,2.69
2023-04-25T01:48:04.778Z,2.67
2023-04-25T01:49:04.717Z,2.69
2023-04-25T01:50:04.706Z,2.69
2023-04-25T01:51:04.722Z,2.70
2023-04-25T01:52:04.687Z,2.73
2023-04-25T01:53:04.663Z,2.71
2023-04-25T01:54:04.667Z,2.69
2023-04-25T01:55:04.650Z,2.64
2023-04-25T01:56:04.643Z,2.58
2023-04-25T01:57:04.663Z,2.58
2023-04-25T01:58:04.613Z,2.58
2023-04-25T01:59:04.610Z,2.58
2023-04-25T02:00:04.608Z,2.56
2023-04-25T02:01:04.660Z,2.53
2023-04-25T02:02:04.603Z,2.52
2023-04-25T02:03:04.723Z,2.51
2023-04-25T02:04:04.838Z,2.52
2023-04-25T02:05:04.552Z,2.53
2023-04-25T02:06:04.585Z,2.52
2023-04-25T02:07:04.541Z,2.49
2023-04-25T02:08:04.568Z,2.48
2023-04-25T02:09:04.568Z,2.48
2023-04-25T02:10:04.497Z,2.49
2023-04-25T02:11:04.500Z,2.52
2023-04-25T02:12:04.510Z,2.55
2023-04-25T02:13:04.500Z,2.53
2023-04-25T02:14:04.480Z,2.53
2023-04-25T02:15:04.492Z,2.55
2023-04-25T02:16:04.520Z,2.56
2023-04-25T02:17:04.612Z,2.56
2023-04-25T02:18:04.454Z,2.56
2023-04-25T02:19:04.419Z,2.59
2023-04-25T02:20:04.425Z,2.58
2023-04-25T02:21:04.431Z,2.55
2023-04-25T02:22:04.397Z,2.55
2023-04-25T02:23:04.378Z,2.52
2023-04-25T02:24:04.371Z,2.53
2023-04-25T02:25:04.355Z,2.55
2023-04-25T02:26:04.362Z,2.56
2023-04-25T02:27:04.366Z,2.58
2023-04-25T02:28:04.329Z,2.58
2023-04-25T02:29:04.319Z,2.58
2023-04-25T02:30:04.313Z,2.59
2023-04-25T02:31:04.343Z,2.56
2023-04-25T02:32:04.284Z,2.56
2023-04-25T02:33:04.323Z,2.55
2023-04-25T02:34:04.263Z,2.53
2023-04-25T02:35:04.258Z,2.55
2023-04-25T02:36:04.242Z,2.55
2023-04-25T02:37:04.244Z,2.51
2023-04-25T02:38:04.230Z,2.49
2023-04-25T02:39:04.233Z,2.52
2023-04-25T02:40:04.198Z,2.55
2023-04-25T02:41:04.194Z,2.55
2023-04-25T02:42:04.184Z,2.53
2023-04-25T02:43:04.176Z,2.55
2023-04-25T02:44:04.153Z,2.56
2023-04-25T02:45:04.196Z,2.55
2023-04-25T02:46:04.136Z,2.53
2023-04-25T02:47:04.161Z,2.53
2023-04-25T02:48:04.267Z,2.55
2023-04-25T02:49:04.125Z,2.56
2023-04-25T02:50:04.116Z,2.56
2023-04-25T02:51:04.141Z,2.55
2023-04-25T02:52:04.085Z,2.58
2023-04-25T02:53:04.087Z,2.59
2023-04-25T02:54:04.081Z,2.64
2023-04-25T02:55:04.062Z,2.64
2023-04-25T02:56:04.053Z,2.61
2023-04-25T02:57:04.066Z,2.61
2023-04-25T02:58:04.034Z,2.58
2023-04-25T02:59:04.022Z,2.58
2023-04-25T03:00:04.005Z,2.59
2023-04-25T03:01:04.056Z,2.61
2023-04-25T03:02:03.984Z,2.58
2023-04-25T03:03:04.103Z,2.56
2023-04-25T03:04:03.970Z,2.55
2023-04-25T03:05:03.908Z,2.55
2023-04-25T03:06:03.896Z,2.56
2023-04-25T03:07:03.884Z,2.55
2023-04-25T03:08:03.925Z,2.59
2023-04-25T03:09:04.012Z,2.61
2023-04-25T03:10:03.922Z,2.61
2023-04-25T03:11:03.908Z,2.63
2023-04-25T03:12:03.908Z,2.63
2023-04-25T03:13:03.879Z,2.61
2023-04-25T03:14:03.874Z,2.59
2023-04-25T03:15:03.878Z,2.59
2023-04-25T03:16:03.886Z,2.58
2023-04-25T03:17:03.870Z,2.56
2023-04-25T03:18:03.801Z,2.56
2023-04-25T03:19:03.763Z,2.55
2023-04-25T03:20:03.804Z,2.55
2023-04-25T03:21:03.780Z,2.55
2023-04-25T03:22:03.737Z,2.56
2023-04-25T03:23:03.738Z,2.55
2023-04-25T03:24:03.722Z,2.56
2023-04-25T03:25:03.764Z,2.58
2023-04-25T03:26:03.695Z,2.56
2023-04-25T03:27:03.711Z,2.56
2023-04-25T03:28:03.688Z,2.58
2023-04-25T03:29:03.671Z,2.61
2023-04-25T03:30:03.688Z,2.61
2023-04-25T03:31:03.661Z,2.61
2023-04-25T03:32:03.721Z,2.61
2023-04-25T03:33:03.671Z,2.61
2023-04-25T03:34:03.630Z,2.63
2023-04-25T03:35:03.617Z,2.63
2023-04-25T03:36:03.595Z,2.63
2023-04-25T03:37:03.594Z,2.64
2023-04-25T03:38:03.581Z,2.64
2023-04-25T03:39:03.598Z,2.67
2023-04-25T03:40:03.570Z,2.69
2023-04-25T03:41:03.558Z,2.67
2023-04-25T03:42:03.543Z,2.69
2023-04-25T03:43:03.547Z,2.69
2023-04-25T03:44:03.516Z,2.67
2023-04-25T03:45:03.529Z,2.67
2023-04-25T03:46:03.550Z,2.64
2023-04-25T03:47:03.487Z,2.64
2023-04-25T03:48:03.540Z,2.66
2023-04-25T03:49:03.462Z,2.66
2023-04-25T03:50:03.463Z,2.66
2023-04-25T03:51:03.462Z,2.64
2023-04-25T03:52:03.433Z,2.67
2023-04-25T03:53:03.429Z,2.67
2023-04-25T03:54:03.430Z,2.69
2023-04-25T03:55:03.418Z,2.67
2023-04-25T03:56:03.394Z,2.67
2023-04-25T03:57:03.448Z,2.67
2023-04-25T03:58:03.384Z,2.64
2023-04-25T03:59:03.381Z,2.66
2023-04-25T04:00:03.382Z,2.66
2023-04-25T04:01:03.353Z,2.66
2023-04-25T04:02:03.400Z,2.66
2023-04-25T04:03:03.472Z,2.59
2023-04-25T04:04:03.677Z,2.56
2023-04-25T04:05:03.523Z,2.56
2023-04-25T04:06:03.308Z,2.55
2023-04-25T04:07:03.313Z,2.53
2023-04-25T04:08:03.314Z,2.52
2023-04-25T04:09:03.338Z,2.49
2023-04-25T04:10:03.259Z,2.48
2023-04-25T04:11:03.269Z,2.49
2023-04-25T04:12:03.244Z,2.49
2023-04-25T04:13:03.236Z,2.51
2023-04-25T04:14:03.219Z,2.51
2023-04-25T04:15:03.268Z,2.51
2023-04-25T04:16:03.216Z,2.49
2023-04-25T04:17:03.193Z,2.49
2023-04-25T04:18:03.236Z,2.51
2023-04-25T04:19:03.182Z,2.51
2023-04-25T04:20:03.197Z,2.51
2023-04-25T04:21:03.186Z,2.52
2023-04-25T04:22:03.140Z,2.49
2023-04-25T04:23:03.136Z,2.49
2023-04-25T04:24:03.130Z,2.51
2023-04-25T04:25:03.124Z,2.51
2023-04-25T04:26:03.111Z,2.52
2023-04-25T04:27:03.155Z,2.52
2023-04-25T04:28:03.075Z,2.52
2023-04-25T04:29:03.070Z,2.52
2023-04-25T04:30:03.060Z,2.52
2023-04-25T04:31:03.102Z,2.55
2023-04-25T04:32:03.032Z,2.53
2023-04-25T04:33:03.090Z,2.55
2023-04-25T04:34:03.024Z,2.55
2023-04-25T04:35:03.009Z,2.55
2023-04-25T04:36:02.998Z,2.56
2023-04-25T04:37:02.981Z,2.58
2023-04-25T04:38:02.985Z,2.55
2023-04-25T04:39:03.036Z,2.55
2023-04-25T04:40:02.960Z,2.53
2023-04-25T04:41:02.963Z,2.55
2023-04-25T04:42:02.950Z,2.56
2023-04-25T04:43:02.939Z,2.58
2023-04-25T04:44:02.948Z,2.58
2023-04-25T04:45:02.946Z,2.58
2023-04-25T04:46:02.905Z,2.55
2023-04-25T04:47:03.076Z,2.58
2023-04-25T04:48:02.923Z,2.59
2023-04-25T04:49:02.875Z,2.61
2023-04-25T04:50:02.875Z,2.59
2023-04-25T04:51:02.948Z,2.61
2023-04-25T04:52:02.848Z,2.59
2023-04-25T04:53:02.847Z,2.61
2023-04-25T04:54:02.836Z,2.61
2023-04-25T04:55:02.822Z,2.63
2023-04-25T04:56:02.813Z,2.63
2023-04-25T04:57:02.840Z,2.63
2023-04-25T04:58:02.782Z,2.63
2023-04-25T04:59:02.800Z,2.59
2023-04-25T05:00:02.765Z,2.59
2023-04-25T05:01:02.791Z,2.59
2023-04-25T05:02:02.748Z,2.59
2023-04-25T05:03:02.873Z,2.59
2023-04-25T05:04:02.790Z,2.59
2023-04-25T05:05:02.735Z,2.59
2023-04-25T05:06:02.704Z,2.59
2023-04-25T05:07:02.710Z,2.61
2023-04-25T05:08:02.679Z,2.59
2023-04-25T05:09:02.729Z,2.59
2023-04-25T05:10:02.662Z,2.61
2023-04-25T05:11:02.655Z,2.63
2023-04-25T05:12:02.644Z,2.61
2023-04-25T05:13:02.633Z,2.63
2023-04-25T05:14:02.624Z,2.63
2023-04-25T05:15:02.647Z,2.63
2023-04-25T05:16:02.651Z,2.63
2023-04-25T05:17:02.821Z,2.63
2023-04-25T05:18:02.696Z,2.64
2023-04-25T05:19:02.599Z,2.63
2023-04-25T05:20:02.573Z,2.63
2023-04-25T05:21:02.677Z,2.61
2023-04-25T05:22:02.552Z,2.63
2023-04-25T05:23:02.546Z,2.64
2023-04-25T05:24:02.533Z,2.64
2023-04-25T05:25:02.532Z,2.66
2023-04-25T05:26:02.517Z,2.66
2023-04-25T05:27:02.784Z,2.67
2023-04-25T05:28:02.503Z,2.66
2023-04-25T05:29:02.482Z,2.64
2023-04-25T05:30:02.471Z,2.64
2023-04-25T05:31:02.470Z,2.67
2023-04-25T05:32:02.477Z,2.70
2023-04-25T05:33:02.493Z,2.71
2023-04-25T05:34:02.436Z,2.73
2023-04-25T05:35:02.464Z,2.74
2023-04-25T05:36:02.415Z,2.70
2023-04-25T05:37:02.411Z,2.73
2023-04-25T05:38:02.391Z,2.74
2023-04-25T05:39:03.220Z,2.76
2023-04-25T05:40:02.359Z,2.79
2023-04-25T05:41:02.357Z,2.79
2023-04-25T05:42:02.351Z,2.82
2023-04-25T05:43:02.332Z,2.84
2023-04-25T05:44:02.346Z,2.87
2023-04-25T05:45:02.348Z,2.89
2023-04-25T05:46:02.354Z,2.92
2023-04-25T05:47:02.293Z,2.94
2023-04-25T05:48:02.329Z,2.95
2023-04-25T05:49:02.272Z,2.97
2023-04-25T05:50:02.257Z,2.97
2023-04-25T05:51:02.272Z,2.98
2023-04-25T05:52:02.246Z,2.98
2023-04-25T05:53:02.248Z,2.91
2023-04-25T05:54:02.222Z,2.92
2023-04-25T05:55:02.222Z,2.97
2023-04-25T05:56:02.205Z,2.98
2023-04-25T05:57:02.227Z,2.98
2023-04-25T05:58:02.194Z,3.00
2023-04-25T05:59:02.181Z,3.05
2023-04-25T06:00:02.220Z,3.10
2023-04-25T06:01:02.165Z,3.12
2023-04-25T06:02:02.192Z,3.12
2023-04-25T06:03:02.400Z,3.12
2023-04-25T06:04:02.348Z,3.13
2023-04-25T06:05:02.308Z,3.18
2023-04-25T06:06:02.246Z,3.20
2023-04-25T06:07:02.103Z,3.21
2023-04-25T06:08:02.094Z,3.25
2023-04-25T06:09:02.108Z,3.25
2023-04-25T06:10:02.074Z,3.25
2023-04-25T06:11:02.066Z,3.16
2023-04-25T06:12:02.047Z,3.18
2023-04-25T06:13:02.037Z,3.13
2023-04-25T06:14:02.034Z,3.10
2023-04-25T06:15:02.238Z,3.10
2023-04-25T06:16:02.062Z,3.02
2023-04-25T06:17:02.001Z,2.97
2023-04-25T06:18:02.059Z,2.91
2023-04-25T06:19:01.978Z,2.94
2023-04-25T06:20:01.957Z,2.94
2023-04-25T06:21:02.009Z,2.94
2023-04-25T06:22:01.937Z,2.95
2023-04-25T06:23:01.946Z,2.95
2023-04-25T06:24:01.913Z,2.87
2023-04-25T06:25:01.949Z,2.85
2023-04-25T06:26:01.903Z,2.85
2023-04-25T06:27:01.914Z,2.81
2023-04-25T06:28:01.878Z,2.82
2023-04-25T06:29:01.866Z,2.82
2023-04-25T06:30:01.865Z,2.85
2023-04-25T06:31:01.862Z,2.87
2023-04-25T06:32:01.837Z,2.85
2023-04-25T06:33:01.862Z,2.82
2023-04-25T06:34:01.830Z,2.85
2023-04-25T06:35:01.819Z,2.87
2023-04-25T06:36:01.806Z,2.85
2023-04-25T06:37:01.799Z,2.84
2023-04-25T06:38:01.785Z,2.87
2023-04-25T06:39:01.800Z,2.88
2023-04-25T06:40:01.771Z,2.89
2023-04-25T06:41:01.765Z,2.92
2023-04-25T06:42:01.749Z,2.95
2023-04-25T06:43:01.738Z,2.95
2023-04-25T06:44:01.728Z,2.94
2023-04-25T06:45:01.745Z,2.91
2023-04-25T06:46:01.697Z,2.88
2023-04-25T06:47:01.735Z,2.84
2023-04-25T06:48:01.710Z,2.84
2023-04-25T06:49:01.678Z,2.84
2023-04-25T06:50:01.687Z,2.85
2023-04-25T06:51:01.688Z,2.88
2023-04-25T06:52:01.652Z,2.92
2023-04-25T06:53:01.673Z,2.94
2023-04-25T06:54:01.631Z,3.00
2023-04-25T06:55:01.620Z,3.02
2023-04-25T06:56:01.595Z,2.98
2023-04-25T06:57:01.640Z,2.95
2023-04-25T06:58:01.594Z,2.97
2023-04-25T06:59:01.576Z,2.97
2023-04-25T07:00:02.401Z,2.95
2023-04-25T07:01:01.582Z,2.97
2023-04-25T07:02:01.546Z,2.98
2023-04-25T07:03:01.758Z,3.00
2023-04-25T07:04:01.717Z,2.95
2023-04-25T07:05:01.509Z,2.97
2023-04-25T07:06:01.511Z,3.02
2023-04-25T07:07:01.492Z,3.02
2023-04-25T07:08:01.492Z,3.05
2023-04-25T07:09:01.499Z,3.07
2023-04-25T07:10:01.481Z,3.10
2023-04-25T07:11:01.449Z,3.10
2023-04-25T07:12:01.445Z,3.10
2023-04-25T07:13:01.451Z,3.12
2023-04-25T07:14:01.428Z,3.15
2023-04-25T07:15:01.451Z,3.16
2023-04-25T07:16:01.446Z,3.16
2023-04-25T07:17:01.471Z,3.18
2023-04-25T07:18:01.449Z,3.21
2023-04-25T07:19:01.380Z,3.23
2023-04-25T07:20:01.457Z,3.24
2023-04-25T07:21:01.419Z,3.25
2023-04-25T07:22:01.365Z,3.23
2023-04-25T07:23:01.334Z,3.21
2023-04-25T07:24:01.345Z,3.18
2023-04-25T07:25:01.367Z,3.18
2023-04-25T07:26:01.321Z,3.16
2023-04-25T07:27:01.324Z,3.18
2023-04-25T07:28:01.293Z,3.18
2023-04-25T07:29:01.277Z,3.21
2023-04-25T07:30:01.300Z,3.24
2023-04-25T07:31:01.277Z,3.24
2023-04-25T07:32:01.342Z,3.20
2023-04-25T07:33:01.302Z,3.21
2023-04-25T07:34:02.217Z,3.25
2023-04-25T07:35:01.233Z,3.30
2023-04-25T07:36:01.211Z,3.34
2023-04-25T07:37:01.199Z,3.42
2023-04-25T07:38:01.177Z,3.46
2023-04-25T07:39:01.199Z,3.40
2023-04-25T07:40:01.168Z,3.40
2023-04-25T07:41:01.148Z,3.40
2023-04-25T07:42:01.141Z,3.36
2023-04-25T07:43:01.126Z,3.42
2023-04-25T07:44:01.148Z,3.40
2023-04-25T07:45:01.125Z,3.36
2023-04-25T07:46:01.171Z,3.40
2023-04-25T07:47:03.164Z,3.42
2023-04-25T07:48:01.105Z,3.42
2023-04-25T07:49:01.069Z,3.50
2023-04-25T07:50:01.095Z,3.53
2023-04-25T07:51:01.081Z,3.61
2023-04-25T07:52:01.045Z,3.71
2023-04-25T07:53:01.039Z,3.78
2023-04-25T07:54:01.025Z,3.82
2023-04-25T07:55:01.015Z,3.80
2023-04-25T07:56:01.006Z,3.82
2023-04-25T07:57:01.038Z,3.80
2023-04-25T07:58:00.984Z,3.85
2023-04-25T07:59:00.976Z,3.89
2023-04-25T08:00:00.974Z,3.96
2023-04-25T08:01:00.975Z,3.97
2023-04-25T08:02:00.937Z,3.92
2023-04-25T08:03:01.041Z,4.01
2023-04-25T08:04:01.318Z,4.08
2023-04-25T08:05:01.166Z,4.14
2023-04-25T08:06:02.174Z,4.25
2023-04-25T08:07:00.911Z,4.25
2023-04-25T08:08:00.883Z,4.21
2023-04-25T08:09:00.895Z,4.32
2023-04-25T08:10:00.866Z,4.43
2023-04-25T08:11:00.854Z,4.55
2023-04-25T08:12:00.833Z,4.72
2023-04-25T08:13:00.829Z,4.67
2023-04-25T08:14:00.812Z,4.59
2023-04-25T08:15:00.822Z,4.65
2023-04-25T08:16:00.841Z,4.59
2023-04-25T08:17:00.774Z,4.58
2023-04-25T08:18:00.785Z,4.62
2023-04-25T08:19:00.768Z,4.64
2023-04-25T08:20:00.754Z,4.70
2023-04-25T08:21:01.256Z,4.64
2023-04-25T08:22:00.740Z,4.65
2023-04-25T08:23:00.722Z,4.70
2023-04-25T08:24:00.717Z,4.77
2023-04-25T08:25:00.708Z,4.83
2023-04-25T08:26:00.698Z,4.84
2023-04-25T08:27:00.715Z,4.88
2023-04-25T08:28:00.723Z,4.94
2023-04-25T08:29:00.673Z,4.95
2023-04-25T08:30:00.663Z,4.96
2023-04-25T08:31:00.764Z,4.96
2023-04-25T08:32:00.646Z,4.92
2023-04-25T08:33:00.790Z,4.65
2023-04-25T08:34:00.624Z,4.62
2023-04-25T08:35:00.616Z,4.57
2023-04-25T08:36:00.597Z,4.57
2023-04-25T08:37:00.596Z,4.54
2023-04-25T08:38:00.582Z,4.36
2023-04-25T08:39:00.640Z,4.25
2023-04-25T08:40:00.563Z,4.26
2023-04-25T08:41:00.547Z,4.34
2023-04-25T08:42:00.541Z,4.33
2023-04-25T08:43:00.537Z,4.34
2023-04-25T08:44:00.517Z,4.36
2023-04-25T08:45:00.536Z,4.39
2023-04-25T08:46:00.516Z,4.43
2023-04-25T08:47:00.637Z,4.43
2023-04-25T08:48:00.519Z,4.50
2023-04-25T08:49:00.506Z,4.52
2023-04-25T08:50:00.450Z,4.46
2023-04-25T08:51:00.454Z,4.47
2023-04-25T08:52:00.501Z,4.50
2023-04-25T08:53:00.557Z,4.55
2023-04-25T08:54:06.828Z,4.57
2023-04-25T08:55:01.414Z,4.61
2023-04-25T08:56:00.402Z,4.65
2023-04-25T08:57:00.422Z,4.69
2023-04-25T08:58:00.532Z,4.69
2023-04-25T08:59:00.349Z,4.69
2023-04-25T09:00:00.355Z,4.58
2023-04-25T09:01:00.359Z,4.59
2023-04-25T09:02:00.402Z,4.61
2023-04-25T09:03:00.497Z,4.62
2023-04-25T09:04:00.436Z,4.69
2023-04-25T09:05:00.310Z,4.75
2023-04-25T09:06:00.294Z,4.76
2023-04-25T09:07:00.277Z,4.79
2023-04-25T09:08:00.303Z,4.84
2023-04-25T09:09:00.278Z,4.88
2023-04-25T09:10:00.254Z,4.88
2023-04-25T09:11:00.400Z,4.80
2023-04-25T09:12:00.229Z,4.75
2023-04-25T09:13:00.266Z,4.75
2023-04-25T09:14:00.224Z,4.79
2023-04-25T09:15:00.225Z,4.83
2023-04-25T09:16:00.302Z,4.80
2023-04-25T09:17:00.375Z,4.83
2023-04-25T09:18:00.279Z,4.79
2023-04-25T09:19:00.168Z,4.79
2023-04-25T09:20:00.190Z,4.79
2023-04-25T09:21:02.119Z,4.79
2023-04-25T09:22:00.127Z,4.69
2023-04-25T09:23:00.139Z,4.62
2023-04-25T09:24:00.128Z,4.46
2023-04-25T09:25:00.133Z,4.44
2023-04-25T09:26:00.110Z,4.47
2023-04-25T09:27:00.195Z,4.43
2023-04-25T09:28:00.083Z,4.47
2023-04-25T09:29:00.051Z,4.52
2023-04-25T09:30:00.060Z,4.57
2023-04-25T09:31:00.031Z,4.61
2023-04-25T09:32:00.128Z,4.69
2023-04-25T09:33:00.089Z,4.75
2023-04-25T09:34:00.288Z,4.84
2023-04-25T09:34:59.987Z,4.89
2023-04-25T09:35:59.981Z,4.95
2023-04-25T09:36:59.967Z,5.01
2023-04-25T09:37:59.962Z,5.02
2023-04-25T09:38:59.989Z,5.05
2023-04-25T09:39:59.948Z,5.05
2023-04-25T09:40:59.946Z,5.02
2023-04-25T09:41:59.942Z,4.89
2023-04-25T09:43:00.743Z,4.75
2023-04-25T09:44:00.653Z,4.73
2023-04-25T09:44:59.919Z,4.70
2023-04-25T09:45:59.926Z,4.70
2023-04-25T09:46:59.882Z,4.73
2023-04-25T09:47:59.903Z,4.75
2023-04-25T09:48:59.867Z,4.76
2023-04-25T09:49:59.855Z,4.77
2023-04-25T09:50:59.858Z,4.75
2023-04-25T09:51:59.845Z,4.59
2023-04-25T09:52:59.811Z,4.44
2023-04-25T09:53:59.813Z,4.29
2023-04-25T09:54:59.788Z,4.26
2023-04-25T09:55:59.793Z,4.25
2023-04-25T09:56:59.809Z,4.25
2023-04-25T09:57:59.767Z,4.24
2023-04-25T09:58:59.762Z,4.25
2023-04-25T09:59:59.748Z,4.25
2023-04-25T10:00:59.777Z,4.08
2023-04-25T10:01:59.721Z,4.03
2023-04-25T10:02:59.871Z,4.06
2023-04-25T10:04:00.042Z,4.10
2023-04-25T10:04:59.764Z,4.15
2023-04-25T10:05:59.704Z,4.07
2023-04-25T10:06:59.654Z,4.04
2023-04-25T10:07:59.662Z,4.04
2023-04-25T10:08:59.666Z,4.03
2023-04-25T10:09:59.642Z,4.08
2023-04-25T10:10:59.621Z,4.10
2023-04-25T10:11:59.627Z,4.08
2023-04-25T10:12:59.598Z,4.12
2023-04-25T10:13:59.587Z,4.15
2023-04-25T10:14:59.611Z,4.19
2023-04-25T10:15:59.613Z,4.26
2023-04-25T10:16:59.568Z,4.29
2023-04-25T10:17:59.636Z,4.34
2023-04-25T10:18:59.542Z,4.39
2023-04-25T10:19:59.546Z,4.46
2023-04-25T10:20:59.553Z,4.55
2023-04-25T10:21:59.527Z,4.64
2023-04-25T10:22:59.502Z,4.65
2023-04-25T10:23:59.499Z,4.72
2023-04-25T10:24:59.492Z,4.72
2023-04-25T10:25:59.486Z,4.75
2023-04-25T10:26:59.491Z,4.70
2023-04-25T10:27:59.541Z,4.73
2023-04-25T10:28:59.449Z,4.75
2023-04-25T10:29:59.442Z,4.77
2023-04-25T10:30:59.594Z,4.83
2023-04-25T10:31:59.461Z,4.86
2023-04-25T10:32:59.436Z,4.91
2023-04-25T10:33:59.404Z,4.95
2023-04-25T10:34:59.383Z,4.96
2023-04-25T10:35:59.392Z,4.99
2023-04-25T10:36:59.368Z,4.98
2023-04-25T10:37:59.440Z,4.95
2023-04-25T10:38:59.366Z,4.91
2023-04-25T10:39:59.340Z,4.88
2023-04-25T10:40:59.340Z,4.91
2023-04-25T10:41:59.314Z,4.96
2023-04-25T10:42:59.297Z,4.96
2023-04-25T10:43:59.295Z,5.04
2023-04-25T10:44:59.303Z,5.07
2023-04-25T10:45:59.274Z,5.09
2023-04-25T10:46:59.328Z,5.05
2023-04-25T10:47:59.289Z,5.05
2023-04-25T10:48:59.249Z,4.94
2023-04-25T10:49:59.225Z,4.84
2023-04-25T10:50:59.236Z,4.86
2023-04-25T10:51:59.212Z,4.92
2023-04-25T10:52:59.196Z,4.96
2023-04-25T10:53:59.200Z,4.99
2023-04-25T10:54:59.169Z,5.02
2023-04-25T10:55:59.171Z,5.05
2023-04-25T10:56:59.186Z,5.04
2023-04-25T10:58:59.390Z,5.04
2023-04-25T10:59:59.137Z,5.02
2023-04-25T11:00:59.172Z,5.01
2023-04-25T11:01:59.222Z,4.95
2023-04-25T11:02:59.229Z,4.89
2023-04-25T11:03:59.506Z,4.89
2023-04-25T11:04:59.090Z,4.96
2023-04-25T11:05:59.073Z,5.05
2023-04-25T11:07:05.948Z,5.12
2023-04-25T11:08:07.256Z,5.19
2023-04-25T11:09:00.060Z,5.27
2023-04-25T11:09:59.028Z,5.30
2023-04-25T11:10:59.021Z,5.25
2023-04-25T11:11:59.009Z,5.23
2023-04-25T11:12:58.998Z,5.19
2023-04-25T11:13:59.017Z,5.17
2023-04-25T11:14:58.987Z,5.17
2023-04-25T11:16:07.334Z,5.23
2023-04-25T11:17:00.903Z,5.23
2023-04-25T11:17:58.986Z,5.28
2023-04-25T11:18:58.945Z,5.30
2023-04-25T11:19:58.947Z,5.32
2023-04-25T11:20:58.920Z,5.25
2023-04-25T11:21:58.911Z,5.31
2023-04-25T11:22:58.896Z,5.38
2023-04-25T11:23:58.878Z,5.41
2023-04-25T11:24:58.877Z,5.45
2023-04-25T11:25:58.887Z,5.48
2023-04-25T11:26:58.856Z,5.43
2023-04-25T11:27:58.859Z,5.32
2023-04-25T11:28:58.833Z,5.32
2023-04-25T11:29:58.818Z,5.32
2023-04-25T11:30:58.811Z,5.30
2023-04-25T11:31:59.065Z,5.30
2023-04-25T11:32:58.818Z,5.27
2023-04-25T11:33:58.797Z,5.25
2023-04-25T11:34:58.772Z,5.23
2023-04-25T11:35:58.764Z,5.05
2023-04-25T11:36:58.747Z,4.83
2023-04-25T11:37:58.762Z,4.77
2023-04-25T11:38:58.738Z,4.80
2023-04-25T11:39:58.737Z,4.86
2023-04-25T11:40:58.713Z,4.92
2023-04-25T11:41:58.898Z,4.95
2023-04-25T11:42:58.727Z,4.99
2023-04-25T11:43:58.890Z,4.95
2023-04-25T11:44:58.672Z,4.89
2023-04-25T11:45:58.704Z,4.88
2023-04-25T11:46:58.666Z,4.91
2023-04-25T11:47:58.685Z,4.91
2023-04-25T11:48:58.643Z,4.95
2023-04-25T11:49:58.784Z,4.99
2023-04-25T11:50:58.621Z,4.94
2023-04-25T11:51:58.615Z,4.96
2023-04-25T11:52:58.590Z,4.99
2023-04-25T11:53:58.607Z,5.01
2023-04-25T11:54:58.568Z,4.99
2023-04-25T11:55:58.588Z,5.04
2023-04-25T11:56:58.557Z,5.10
2023-04-25T11:57:58.531Z,5.17
2023-04-25T11:58:58.556Z,5.25
2023-04-25T11:59:58.514Z,5.28
2023-04-25T12:00:58.506Z,5.25
2023-04-25T12:01:59.287Z,5.22
2023-04-25T12:02:58.630Z,5.17
2023-04-25T12:03:58.709Z,5.14
2023-04-25T12:05:01.121Z,5.20
2023-04-25T12:05:59.644Z,5.22
2023-04-25T12:06:58.489Z,5.31
2023-04-25T12:07:58.488Z,5.40
2023-04-25T12:08:58.437Z,5.43
2023-04-25T12:09:58.410Z,5.41
2023-04-25T12:10:58.407Z,5.41
2023-04-25T12:11:58.542Z,5.49
2023-04-25T12:12:58.378Z,5.52
2023-04-25T12:13:59.315Z,5.57
2023-04-25T12:14:58.373Z,5.66
2023-04-25T12:15:58.402Z,5.77
2023-04-25T12:16:58.335Z,5.83
2023-04-25T12:17:58.339Z,5.91
2023-04-25T12:18:58.329Z,5.88
2023-04-25T12:19:58.333Z,5.91
2023-04-25T12:20:58.332Z,5.73
2023-04-25T12:21:59.459Z,5.64
2023-04-25T12:22:58.281Z,5.68
2023-04-25T12:23:58.267Z,5.77
2023-04-25T12:24:58.265Z,5.82
2023-04-25T12:25:58.266Z,5.85
2023-04-25T12:26:58.257Z,5.88
2023-04-25T12:27:58.244Z,5.92
2023-04-25T12:28:58.301Z,5.98
2023-04-25T12:29:58.219Z,6.03
2023-04-25T12:30:58.238Z,6.10
2023-04-25T12:31:58.336Z,6.09
2023-04-25T12:32:58.242Z,6.06
2023-04-25T12:33:58.173Z,6.04
2023-04-25T12:34:58.166Z,6.07
2023-04-25T12:35:58.156Z,6.01
2023-04-25T12:36:58.144Z,6.03
2023-04-25T12:37:58.138Z,6.04
2023-04-25T12:38:58.112Z,5.98
2023-04-25T12:39:58.103Z,5.93
2023-04-25T12:40:58.093Z,5.98
2023-04-25T12:41:58.082Z,6.04
2023-04-25T12:42:58.081Z,6.13
2023-04-25T12:43:58.103Z,6.19
2023-04-25T12:44:58.075Z,6.14
2023-04-25T12:45:58.058Z,6.14
2023-04-25T12:46:58.092Z,6.18
2023-04-25T12:47:58.027Z,6.07
2023-04-25T12:49:05.308Z,6.13
2023-04-25T12:49:59.055Z,6.11
2023-04-25T12:50:58.107Z,6.07
2023-04-25T12:51:57.984Z,6.07
2023-04-25T12:52:57.979Z,6.06
2023-04-25T12:53:57.965Z,6.07
2023-04-25T12:54:57.956Z,6.07
2023-04-25T12:55:57.971Z,6.09
2023-04-25T12:56:57.947Z,5.86
2023-04-25T12:57:57.937Z,5.89
2023-04-25T12:58:57.932Z,5.95
2023-04-25T12:59:57.906Z,5.91
2023-04-25T13:00:57.939Z,5.82
2023-04-25T13:01:57.970Z,5.83
2023-04-25T13:02:58.033Z,5.86
2023-04-25T13:03:58.027Z,5.86
2023-04-25T13:04:57.868Z,5.89
2023-04-25T13:05:57.888Z,5.93
2023-04-25T13:06:57.848Z,6.00
2023-04-25T13:07:57.873Z,6.06
2023-04-25T13:08:57.823Z,6.06
2023-04-25T13:09:57.812Z,6.14
2023-04-25T13:10:57.813Z,6.22
2023-04-25T13:11:59.201Z,6.35
2023-04-25T13:12:57.800Z,6.35
2023-04-25T13:13:57.815Z,6.40
2023-04-25T13:14:57.767Z,6.48
2023-04-25T13:15:57.737Z,6.58
2023-04-25T13:16:57.801Z,6.59
2023-04-25T13:17:57.744Z,6.61
2023-04-25T13:18:57.723Z,6.65